createdAt,value
2023-01-29T00:05:33.672Z,12.88
2023-01-29T00:15:41.899Z,13.15
2023-01-29T00:25:50.138Z,15.08
2023-01-29T00:35:58.243Z,16.98
2023-01-29T00:46:06.315Z,15
2023-01-29T00:56:14.355Z,16.89
2023-01-29T01:06:22.401Z,16.06
2023-01-29T01:16:30.518Z,16.16
2023-01-29T01:26:38.647Z,16.18
2023-01-29T01:36:48.043Z,15.15
2023-01-29T01:46:56.483Z,13.76
2023-01-29T01:57:04.837Z,13.75
2023-01-29T02:07:12.852Z,14.85
2023-01-29T02:17:21.050Z,16.61
2023-01-29T02:27:29.343Z,14
2023-01-29T02:37:38.211Z,15.27
2023-01-29T02:47:37.580Z,16.12
2023-01-29T02:57:45.880Z,16.43
2023-01-29T03:07:53.996Z,15.74
2023-01-29T03:18:01.985Z,14.33
2023-01-29T03:28:10.243Z,19.58
2023-01-29T03:38:18.316Z,23.69
2023-01-29T03:48:26.395Z,19.66
2023-01-29T03:58:36.145Z,19.61
2023-01-29T04:08:44.322Z,15.43
2023-01-29T04:18:52.456Z,17.76
2023-01-29T04:29:00.332Z,15.94
2023-01-29T04:39:08.921Z,16.45
2023-01-29T04:49:15.907Z,12.97
2023-01-29T04:59:23.897Z,15.29
2023-01-29T05:09:31.873Z,15.43
2023-01-29T05:19:39.798Z,13.53
2023-01-29T05:29:47.950Z,13.65
2023-01-29T05:39:55.962Z,11.09
2023-01-29T05:50:04.027Z,16.54
2023-01-29T06:00:12.112Z,16.64
2023-01-29T06:10:20.190Z,14.2
2023-01-29T06:20:28.094Z,14.29
2023-01-29T06:30:36.122Z,12.95
2023-01-29T06:40:44.154Z,13.23
2023-01-29T06:50:52.524Z,11.86
2023-01-29T07:01:00.548Z,12.87
2023-01-29T07:11:08.491Z,14.43
2023-01-29T07:21:16.427Z,15.08
2023-01-29T07:31:24.407Z,12.43
2023-01-29T07:41:32.149Z,13.69
2023-01-29T07:51:40.180Z,13.14
2023-01-29T08:01:48.132Z,13.07
2023-01-29T08:11:56.320Z,13.09
2023-01-29T08:22:04.350Z,11.96
2023-01-29T08:32:12.378Z,10.86
2023-01-29T08:42:20.427Z,9.02
2023-01-29T08:52:28.407Z,9.49
2023-01-29T09:02:36.442Z,11.47
2023-01-29T09:12:44.409Z,13.55
2023-01-29T09:22:52.363Z,11.35
2023-01-29T09:32:59.985Z,11.19
2023-01-29T09:43:07.915Z,9.6
2023-01-29T09:53:15.927Z,10.1
2023-01-29T10:03:23.930Z,12.29
2023-01-29T10:13:31.920Z,12.24
2023-01-29T10:23:39.430Z,10.27
2023-01-29T10:43:56.703Z,12.54
2023-01-29T10:53:54.743Z,12.75
2023-01-29T11:04:02.618Z,10.94
2023-01-29T11:14:11.578Z,11.11
2023-01-29T11:24:19.558Z,12.56
2023-01-29T11:34:27.567Z,13.6
2023-01-29T11:44:35.778Z,16.5
2023-01-29T11:54:44.384Z,11.06
2023-01-29T12:04:52.586Z,11.64
2023-01-29T12:15:00.510Z,10.25
2023-01-29T12:25:08.426Z,9.9
2023-01-29T12:38:20.469Z,7.22
2023-01-29T12:47:36.609Z,10.21
2023-01-29T13:07:51.385Z,9.05
2023-01-29T13:17:53.288Z,8.11
2023-01-29T13:27:41.774Z,9.19
2023-01-29T13:37:50.186Z,11.26
2023-01-29T13:48:04.630Z,9.98
2023-01-29T13:58:07.451Z,10.81
2023-01-29T14:08:10.011Z,11.64
2023-01-29T14:18:19.028Z,18.8
2023-01-29T14:38:23.627Z,15.21
2023-01-29T14:48:22.395Z,11.46
2023-01-29T14:58:30.733Z,14.54
2023-01-29T15:08:30.757Z,14.01
2023-01-29T15:18:38.536Z,14.16
2023-01-29T15:28:39.299Z,13.21
2023-01-29T15:38:47.806Z,12.91
2023-01-29T15:48:55.689Z,11.24
2023-01-29T15:59:05.491Z,11.21
2023-01-29T16:09:10.625Z,11.15
2023-01-29T16:19:18.500Z,10.99
2023-01-29T16:29:26.925Z,12.81
2023-01-29T16:39:34.760Z,11.9
2023-01-29T16:49:42.646Z,11.8
2023-01-29T16:59:51.082Z,15.12
2023-01-29T17:09:50.823Z,15.55
2023-01-29T17:19:57.336Z,17.15
2023-01-29T17:30:01.684Z,20.89
2023-01-29T17:40:09.135Z,19.96
2023-01-29T17:50:08.961Z,25.22
2023-01-29T18:00:24.999Z,33.2
2023-01-29T18:10:23.333Z,30.59
2023-01-29T18:20:31.581Z,34.69
2023-01-29T18:30:40.120Z,18.86
2023-01-29T18:40:49.711Z,13.45
2023-01-29T19:08:14.764Z,17.6
2023-01-29T19:10:58.725Z,16.09
2023-01-29T19:21:09.105Z,18.51
2023-01-29T19:31:01.565Z,20.24
2023-01-29T19:41:06.573Z,24.86
2023-01-29T19:51:06.991Z,23.88
2023-01-29T20:01:18.558Z,31.28
2023-01-29T20:11:19.234Z,24.92
2023-01-29T20:21:28.880Z,24.25
2023-01-29T20:31:38.675Z,29.82
2023-01-29T20:41:47.039Z,30.42
2023-01-29T20:51:55.977Z,23.3
2023-01-29T21:02:04.017Z,20.32
2023-01-29T21:12:11.881Z,27.59
2023-01-29T21:22:25.016Z,25.28
2023-01-29T21:32:24.400Z,24.74
2023-01-29T21:42:23.371Z,22
2023-01-29T21:52:31.492Z,28.6
2023-01-29T22:02:39.369Z,19.45
2023-01-29T22:12:46.969Z,20.45
2023-01-29T22:22:54.935Z,19.94
2023-01-29T22:33:02.994Z,24.57
2023-01-29T22:43:10.981Z,22.36
2023-01-29T22:53:18.993Z,20.7
2023-01-29T23:03:26.987Z,18.78
2023-01-29T23:13:34.950Z,14.42
2023-01-29T23:23:44.990Z,14.77
2023-01-29T23:33:50.707Z,17.47
2023-01-29T23:43:58.533Z,16.89
2023-01-29T23:54:06.491Z,15.95
